KLCK/LCK METAR and TAF weather

Enter ICAO airport designator
Station Type Date Time Source
KLCK METAR 2018/12/10 13:35 UTC NOAA

KLCK 101335Z AUTO 01003KT 7SM OVC004 M06/M07 A3025 RMK AO2 T10591074


Station Type Date Time Source
KLCK Decoded METAR 2018/12/10 13:35 UTC NOAA

Rickenbacker Air National Guard Base, OH, United States (KLCK) 39-49N 082-56W
Dec 10, 2018 - 08:35 AM EST / 2018.12.10 1335 UTC
Wind: from the N (010 degrees) at 3 MPH (3 KT):0
Visibility: 7 mile(s):0
Sky conditions: overcast
Temperature: 21.4 F (-5.9 C)
Dew Point: 18.7 F (-7.4 C)
Relative Humidity: 89%
Pressure (altimeter): 30.25 in. Hg (1024 hPa)
ob: KLCK 101335Z AUTO 01003KT 7SM OVC004 M06/M07 A3025 RMK AO2 T10591074
cycle: 13

Station Type Date Time Source
KLCK TAF 2018/12/10 13:28 UTC NOAA

TAF
AMD KLCK 101317Z 1013/1112 36004KT 4SM BR OVC006
TEMPO 1013/1015 2SM BR OVC002
FM101700 34005KT P6SM OVC012
FM102300 33004KT P6SM BKN018
FM110500 VRB03KT P6SM SCT020
FM110900 24004KT P6SM SCT020


Example: see airport list